Time;durP1;ratioP1;P1;durP2;ratioP2;P2;SDS_P1;SDS_P2;PMS_P1;PMS_P2;Temp;Humidity;BMP_temperature;BMP_pressure;BME280_temperature;BME280_humidity;BME280_pressure;Samples;Min_cycle;Max_cycle;Signal;HPM_P1;HPM_P2
2023/08/18 00:01:55;;;;;;;0.30;0.30;;;;;;;17.72;79.05;99968.72;4822841;29;20138;-81
2023/08/18 00:04:22;;;;;;;0.20;0.20;;;;;;;17.68;79.39;99966.78;4822696;29;20511;-81
2023/08/18 00:06:50;;;;;;;0.30;0.30;;;;;;;17.68;79.72;99973.06;4822863;29;20050;-81
2023/08/18 00:09:17;;;;;;;0.30;0.30;;;;;;;17.70;79.73;99976.34;4806527;29;20050;-81
2023/08/18 00:11:44;;;;;;;0.30;0.30;;;;;;;17.71;79.53;99967.06;4822708;29;20055;-81
2023/08/18 00:14:11;;;;;;;0.30;0.30;;;;;;;17.84;79.19;99981.31;4821625;29;20058;-80
2023/08/18 00:16:39;;;;;;;0.30;0.30;;;;;;;17.76;79.64;99972.53;4821753;29;20058;-81
2023/08/18 00:19:06;;;;;;;0.30;0.30;;;;;;;17.74;79.59;99976.63;4806364;29;20058;-80
2023/08/18 00:21:33;;;;;;;0.30;0.30;;;;;;;17.75;79.34;99979.09;4822447;29;20571;-81
2023/08/18 00:24:00;;;;;;;0.20;0.20;;;;;;;17.80;79.46;99980.22;4806582;29;20055;-81
2023/08/18 00:26:28;;;;;;;0.30;0.30;;;;;;;17.76;79.63;99979.91;4806603;29;20058;-81
2023/08/18 00:28:55;;;;;;;0.30;0.30;;;;;;;17.73;79.66;99985.91;4824139;29;20050;-82
2023/08/18 00:31:24;;;;;;;0.30;0.30;;;;;;;17.71;79.61;99985.34;4806265;29;20055;-80
2023/08/18 00:33:54;;;;;;;0.30;0.30;;;;;;;17.68;79.66;99980.44;4822161;29;20058;-82
2023/08/18 00:36:22;;;;;;;0.30;0.30;;;;;;;17.72;79.44;99976.91;4821128;29;20115;-81
2023/08/18 00:38:49;;;;;;;0.30;0.30;;;;;;;17.72;79.50;99985.09;4822472;29;20137;-81
2023/08/18 00:41:16;;;;;;;0.30;0.30;;;;;;;17.74;79.48;99987.53;4821561;29;20082;-82
2023/08/18 00:43:44;;;;;;;0.20;0.20;;;;;;;17.74;79.65;99979.34;4821227;29;20064;-82
2023/08/18 00:46:11;;;;;;;0.30;0.30;;;;;;;17.73;79.80;99992.19;4775732;29;20073;-82
2023/08/18 00:48:39;;;;;;;0.30;0.30;;;;;;;17.67;80.15;99990.53;4821348;29;20050;-81
2023/08/18 00:51:07;;;;;;;0.30;0.30;;;;;;;17.62;80.54;99984.22;4805655;29;20072;-81
2023/08/18 00:53:35;;;;;;;0.30;0.30;;;;;;;17.57;80.90;99989.66;4811948;29;20523;-81
2023/08/18 00:56:05;;;;;;;0.30;0.30;;;;;;;17.48;81.18;99979.25;4824227;29;20046;-80
2023/08/18 00:58:33;;;;;;;0.20;0.20;;;;;;;17.52;81.14;99987.72;4808855;29;20459;-81
2023/08/18 01:01:02;;;;;;;0.30;0.30;;;;;;;17.51;81.36;99989.63;4840175;29;20068;-81
2023/08/18 01:03:30;;;;;;;0.30;0.30;;;;;;;17.50;81.35;99979.00;4839953;29;20551;-81
2023/08/18 01:05:58;;;;;;;0.30;0.30;;;;;;;17.46;81.32;99969.69;4838990;29;20045;-81
2023/08/18 01:08:28;;;;;;;0.30;0.30;;;;;;;17.45;81.32;99968.06;4839080;29;20595;-81
2023/08/18 01:11:01;;;;;;;0.30;0.30;;;;;;;17.44;81.53;99972.69;4840642;29;20417;-81
2023/08/18 01:14:01;;;;;;;0.30;0.30;;;;;;;17.45;81.72;99970.78;4827748;29;20144;-80
2023/08/18 01:16:29;;;;;;;0.30;0.30;;;;;;;17.41;81.64;99961.47;4787143;30;20124;-81
2023/08/18 01:18:58;;;;;;;0.30;0.30;;;;;;;17.43;81.65;99964.78;4787068;30;20590;-81
2023/08/18 01:21:25;;;;;;;0.30;0.30;;;;;;;17.42;82.04;99968.56;4786880;30;20063;-80
2023/08/18 01:23:53;;;;;;;0.30;0.30;;;;;;;17.39;82.36;99960.94;4786788;30;20134;-81
2023/08/18 01:26:21;;;;;;;0.30;0.30;;;;;;;17.37;82.48;99963.09;4771988;30;20062;-80
2023/08/18 01:28:48;;;;;;;0.30;0.30;;;;;;;17.42;82.25;99963.97;4771966;30;20051;-79
2023/08/18 01:31:21;;;;;;;0.30;0.30;;;;;;;17.44;82.45;99952.75;4772289;30;20532;-80
2023/08/18 01:33:53;;;;;;;0.30;0.30;;;;;;;17.46;82.14;99947.88;4801523;29;20062;-79
2023/08/18 01:36:21;;;;;;;0.30;0.30;;;;;;;17.47;82.20;99963.13;4801824;29;20063;-81
2023/08/18 01:38:51;;;;;;;0.30;0.30;;;;;;;17.42;82.45;99963.97;4789213;30;20056;-81
2023/08/18 01:41:21;;;;;;;0.30;0.30;;;;;;;17.38;82.72;99957.38;4802012;29;20215;-80
2023/08/18 01:43:49;;;;;;;0.20;0.20;;;;;;;17.36;82.69;99956.81;4801488;29;20112;-81
2023/08/18 01:46:16;;;;;;;0.30;0.30;;;;;;;17.35;82.59;99955.19;4786690;30;20565;-81
2023/08/18 01:48:44;;;;;;;0.30;0.30;;;;;;;17.33;82.95;99955.44;4786369;30;20539;-81
2023/08/18 01:51:11;;;;;;;0.30;0.30;;;;;;;17.35;83.01;99952.47;4786656;30;20055;-80
2023/08/18 01:53:38;;;;;;;0.30;0.30;;;;;;;17.32;83.02;99945.63;4826556;29;20360;-81
2023/08/18 01:56:05;;;;;;;0.30;0.30;;;;;;;17.31;83.08;99943.97;4826563;29;20050;-80
2023/08/18 01:58:32;;;;;;;0.30;0.30;;;;;;;17.31;83.20;99948.63;4826614;29;20054;-81
2023/08/18 02:00:59;;;;;;;0.30;0.30;;;;;;;17.36;83.21;99950.56;4826191;29;20057;-80
2023/08/18 02:03:27;;;;;;;0.30;0.30;;;;;;;17.35;83.10;99946.19;4843100;29;20125;-81
2023/08/18 02:05:56;;;;;;;0.30;0.30;;;;;;;17.38;82.97;99951.13;4826175;29;20574;-81
2023/08/18 02:08:27;;;;;;;0.30;0.30;;;;;;;17.35;83.00;99947.00;4841829;29;20052;-81
2023/08/18 02:11:27;;;;;;;0.30;0.30;;;;;;;17.37;82.93;99952.19;4842441;29;20058;-81
2023/08/18 02:13:55;;;;;;;0.30;0.30;;;;;;;17.25;83.16;99953.22;4840754;29;20537;-81
2023/08/18 02:16:23;;;;;;;0.30;0.30;;;;;;;17.22;83.39;99961.94;4826613;29;20110;-82
2023/08/18 02:18:50;;;;;;;0.30;0.30;;;;;;;17.28;83.53;99962.78;4842540;29;20098;-82
2023/08/18 02:21:18;;;;;;;0.30;0.30;;;;;;;17.30;83.47;99977.00;4825964;29;20518;-81
2023/08/18 02:23:45;;;;;;;0.30;0.30;;;;;;;17.28;83.53;99979.97;4842661;29;20050;-80
2023/08/18 02:26:13;;;;;;;0.30;0.30;;;;;;;17.23;83.65;99982.69;4842831;29;20054;-80
2023/08/18 02:28:41;;;;;;;0.30;0.30;;;;;;;17.15;83.87;99976.91;4842548;29;20050;-81
2023/08/18 02:31:10;;;;;;;0.30;0.30;;;;;;;17.17;84.17;99986.47;4843091;29;20062;-81
2023/08/18 02:33:37;;;;;;;0.30;0.30;;;;;;;17.21;84.20;99981.31;4841471;29;20479;-82
2023/08/18 02:36:05;;;;;;;0.30;0.30;;;;;;;17.20;84.27;99988.66;4842335;29;20057;-80
2023/08/18 02:38:35;;;;;;;0.30;0.30;;;;;;;17.20;84.13;99982.41;4842813;29;20049;-80
2023/08/18 02:41:03;;;;;;;0.30;0.30;;;;;;;17.22;84.14;99991.97;4842382;29;20053;-81
2023/08/18 02:43:30;;;;;;;0.30;0.30;;;;;;;17.20;84.12;99988.66;4842317;29;20053;-82
2023/08/18 02:45:58;;;;;;;0.30;0.30;;;;;;;17.25;84.73;99991.44;4825579;29;20068;-81
2023/08/18 02:48:27;;;;;;;0.30;0.30;;;;;;;17.33;84.29;99984.66;4840833;29;20046;-81
2023/08/18 02:51:02;;;;;;;0.30;0.30;;;;;;;17.33;84.64;99998.28;4825743;29;20162;-81
2023/08/18 02:53:31;;;;;;;0.30;0.30;;;;;;;17.33;84.92;99992.81;4842155;29;20144;-81
2023/08/18 02:55:58;;;;;;;0.30;0.30;;;;;;;17.32;84.70;99993.94;4842099;29;20455;-80
2023/08/18 02:58:30;;;;;;;0.30;0.30;;;;;;;17.38;84.54;100005.69;4842256;29;20057;-81
2023/08/18 03:01:02;;;;;;;0.30;0.30;;;;;;;17.45;84.46;100009.81;4841987;29;20050;-81
2023/08/18 03:03:35;;;;;;;0.30;0.30;;;;;;;17.52;84.42;100015.00;4840797;29;20046;-82
2023/08/18 03:06:05;;;;;;;0.30;0.30;;;;;;;17.58;84.09;100016.69;4841733;29;20417;-82
2023/08/18 03:08:39;;;;;;;0.30;0.30;;;;;;;17.62;83.75;100011.50;4842048;29;20050;-80
2023/08/18 03:11:08;;;;;;;0.30;0.30;;;;;;;17.57;83.81;100006.84;4841282;29;20058;-80
2023/08/18 03:13:36;;;;;;;0.30;0.30;;;;;;;17.69;83.65;100012.91;4840585;29;20111;-80
2023/08/18 03:16:04;;;;;;;0.30;0.30;;;;;;;17.71;83.44;100008.00;4841433;29;20091;-82
2023/08/18 03:18:32;;;;;;;0.30;0.30;;;;;;;17.83;83.23;100013.28;4840559;29;20077;-81
2023/08/18 03:21:04;;;;;;;0.30;0.30;;;;;;;17.93;82.76;100015.22;4841470;29;20050;-81
2023/08/18 03:23:32;;;;;;;0.30;0.30;;;;;;;18.01;82.57;100008.41;4843779;29;20529;-81
2023/08/18 03:26:02;;;;;;;0.30;0.30;;;;;;;18.12;81.97;100019.06;4825593;29;20073;-81
2023/08/18 03:28:35;;;;;;;0.30;0.30;;;;;;;18.19;81.27;100005.97;4824803;29;20426;-82
2023/08/18 03:31:06;;;;;;;0.30;0.30;;;;;;;18.28;81.01;100013.63;4824910;29;20421;-80
2023/08/18 03:33:35;;;;;;;0.30;0.30;;;;;;;18.36;81.09;100022.13;4840573;29;20058;-81
2023/08/18 03:36:05;;;;;;;0.30;0.30;;;;;;;18.38;80.85;100014.50;4824504;29;20054;-84
2023/08/18 03:38:35;;;;;;;0.30;0.30;;;;;;;18.47;80.77;100016.69;4839932;29;20058;-81
2023/08/18 03:41:06;;;;;;;0.30;0.30;;;;;;;18.55;80.53;100024.34;4824879;29;20060;-81
2023/08/18 03:43:34;;;;;;;0.30;0.30;;;;;;;18.61;80.02;100018.59;4841275;29;20054;-79
2023/08/18 03:46:25;;;;;;;0.30;0.30;;;;;;;18.81;79.26;100015.09;4824652;29;20057;-81
2023/08/18 03:48:58;;;;;;;0.30;0.30;;;;;;;18.91;79.08;100008.75;4824397;29;20053;-81
2023/08/18 03:51:26;;;;;;;0.20;0.20;;;;;;;19.05;78.84;100012.59;4839909;29;20107;-82
2023/08/18 03:53:54;;;;;;;0.30;0.30;;;;;;;19.22;78.12;100011.47;4831561;29;20498;-82
2023/08/18 03:56:21;;;;;;;0.30;0.30;;;;;;;19.39;77.98;100008.41;4811522;29;20507;-80
2023/08/18 03:58:50;;;;;;;0.30;0.30;;;;;;;19.46;78.46;100008.94;4810714;29;20394;-81
2023/08/18 04:01:17;;;;;;;0.30;0.30;;;;;;;19.55;78.25;100014.66;4806415;29;20080;-83
2023/08/18 04:03:48;;;;;;;0.30;0.30;;;;;;;19.64;77.78;100012.97;4806301;29;20440;-83
2023/08/18 04:06:18;;;;;;;0.30;0.30;;;;;;;19.72;77.70;100017.88;4807079;29;20145;-81
2023/08/18 04:08:45;;;;;;;0.30;0.30;;;;;;;19.78;76.95;100013.22;4823036;29;20050;-83
2023/08/18 04:11:13;;;;;;;0.30;0.30;;;;;;;19.89;76.47;100012.06;4822169;29;20145;-82
2023/08/18 04:13:40;;;;;;;0.30;0.30;;;;;;;20.03;76.15;100017.75;4822389;29;20133;-83
2023/08/18 04:16:08;;;;;;;0.30;0.30;;;;;;;20.12;75.99;100013.31;4821504;29;20069;-83
2023/08/18 04:18:37;;;;;;;0.30;0.30;;;;;;;20.21;75.46;100017.09;4806464;29;20157;-83
2023/08/18 04:21:05;;;;;;;0.30;0.30;;;;;;;20.28;73.40;100006.63;4821486;29;20050;-83
2023/08/18 04:23:32;;;;;;;0.30;0.30;;;;;;;20.41;72.90;100009.81;4821825;29;20046;-83
2023/08/18 04:26:00;;;;;;;0.30;0.30;;;;;;;20.53;71.89;100008.38;4821391;29;20540;-82
2023/08/18 04:28:29;;;;;;;0.30;0.30;;;;;;;20.63;71.30;100004.75;4806678;29;20061;-82
2023/08/18 04:30:58;;;;;;;0.30;0.30;;;;;;;20.78;71.22;100014.75;4821894;29;20583;-83
2023/08/18 04:34:04;;;;;;;0.30;0.30;;;;;;;20.96;70.08;100016.81;4784425;30;20059;-81
2023/08/18 04:36:33;;;;;;;0.30;0.30;;;;;;;21.12;68.71;100014.72;4769621;30;20146;-82
2023/08/18 04:39:01;;;;;;;0.30;0.30;;;;;;;21.30;67.81;100004.94;4754587;30;20063;-84
2023/08/18 04:41:31;;;;;;;0.30;0.30;;;;;;;21.45;68.40;100000.41;4784142;30;20376;-83
2023/08/18 04:43:59;;;;;;;0.22;0.22;;;;;;;21.55;68.24;100006.59;4769021;29;20055;-84
2023/08/18 04:46:28;;;;;;;0.30;0.30;;;;;;;21.66;67.78;100001.78;4754572;30;20059;-84
2023/08/18 04:49:00;;;;;;;0.28;0.28;;;;;;;21.83;67.84;100009.56;4768853;30;20117;-84
2023/08/18 04:51:27;;;;;;;0.20;0.20;;;;;;;21.98;66.25;100016.78;4769196;30;20093;-82
2023/08/18 04:53:56;;;;;;;0.20;0.20;;;;;;;22.14;65.80;100017.38;4791953;29;20067;-82
2023/08/18 04:56:23;;;;;;;0.25;0.25;;;;;;;22.24;65.46;100018.06;4787135;29;20503;-82
2023/08/18 04:58:51;;;;;;;0.30;0.30;;;;;;;22.38;64.88;100028.31;4786631;29;20542;-83
2023/08/18 05:01:18;;;;;;;0.20;0.20;;;;;;;22.50;64.13;100028.69;4787201;29;20155;-82
2023/08/18 05:03:46;;;;;;;0.20;0.20;;;;;;;22.64;62.81;100026.00;4802818;29;20134;-84
2023/08/18 05:06:13;;;;;;;0.20;0.20;;;;;;;22.82;63.27;100022.38;4822850;29;20078;-82
2023/08/18 05:08:41;;;;;;;0.20;0.20;;;;;;;23.04;61.12;100023.69;4822337;29;20046;-83
2023/08/18 05:11:10;;;;;;;0.20;0.20;;;;;;;23.29;59.10;100025.16;4822150;29;20157;-83
2023/08/18 05:13:39;;;;;;;0.20;0.20;;;;;;;23.57;57.27;100025.97;4821095;29;20418;-82
2023/08/18 05:16:10;;;;;;;0.20;0.20;;;;;;;23.77;55.57;100017.31;4820822;29;20054;-82
2023/08/18 05:18:38;;;;;;;0.20;0.20;;;;;;;23.91;54.15;100020.06;4822537;29;20059;-82
2023/08/18 05:21:05;;;;;;;0.20;0.20;;;;;;;24.15;54.96;100027.25;4806088;29;20054;-84
2023/08/18 05:23:36;;;;;;;0.20;0.20;;;;;;;24.27;54.69;100015.69;4822507;29;20053;-83
2023/08/18 05:26:04;;;;;;;0.20;0.20;;;;;;;24.48;52.93;100022.38;4822239;29;20050;-82
2023/08/18 05:28:32;;;;;;;0.20;0.20;;;;;;;24.60;52.37;100016.31;4821145;29;20061;-83
2023/08/18 05:31:00;;;;;;;0.20;0.20;;;;;;;24.74;52.59;100017.06;4821903;29;20050;-81
2023/08/18 05:33:27;;;;;;;0.20;0.20;;;;;;;24.91;52.96;100012.78;4821135;29;20053;-82
2023/08/18 05:35:59;;;;;;;0.20;0.20;;;;;;;25.17;52.57;100021.22;4821787;29;20061;-83
2023/08/18 05:38:27;;;;;;;0.20;0.20;;;;;;;25.12;52.31;100013.03;4822143;29;20062;-82
2023/08/18 05:41:03;;;;;;;0.20;0.20;;;;;;;25.04;51.68;100020.16;4825268;29;20472;-82
2023/08/18 05:43:37;;;;;;;0.20;0.20;;;;;;;25.05;52.10;100013.50;4822685;29;20108;-82
2023/08/18 05:46:05;;;;;;;0.20;0.20;;;;;;;25.01;52.47;100018.03;4822244;29;20059;-84
2023/08/18 05:48:33;;;;;;;0.20;0.20;;;;;;;25.01;51.37;100012.50;4806114;29;20400;-83
2023/08/18 05:51:01;;;;;;;0.20;0.20;;;;;;;25.06;50.62;100021.47;4821992;29;20137;-82
2023/08/18 05:53:28;;;;;;;0.20;0.20;;;;;;;25.05;50.82;100017.09;4827052;29;20061;-82
2023/08/18 05:55:55;;;;;;;0.20;0.20;;;;;;;24.95;51.76;100017.34;4823913;29;20076;-84
2023/08/18 05:58:22;;;;;;;0.20;0.20;;;;;;;24.84;51.81;100010.47;4843333;29;20057;-82
2023/08/18 06:00:50;;;;;;;0.20;0.20;;;;;;;24.80;52.13;100013.03;4843406;29;20050;-82
2023/08/18 06:03:20;;;;;;;0.20;0.20;;;;;;;24.80;51.31;100015.78;4843812;29;20046;-82
2023/08/18 06:05:48;;;;;;;0.20;0.20;;;;;;;24.82;52.06;100018.25;4843658;29;20504;-83
2023/08/18 06:08:16;;;;;;;0.20;0.20;;;;;;;24.87;52.84;100015.34;4843922;29;20137;-84
2023/08/18 06:10:43;;;;;;;0.20;0.20;;;;;;;25.05;52.45;100019.84;4842222;29;20529;-84
2023/08/18 06:13:12;;;;;;;0.20;0.20;;;;;;;25.17;51.59;100021.22;4843023;29;20057;-83
2023/08/18 06:15:39;;;;;;;0.20;0.20;;;;;;;25.21;52.22;100016.69;4843901;29;20456;-82
2023/08/18 06:18:06;;;;;;;0.20;0.20;;;;;;;25.24;52.84;100024.34;4851191;29;20062;-83
2023/08/18 06:20:34;;;;;;;0.20;0.20;;;;;;;25.23;53.43;100011.69;4849310;29;20087;-83
2023/08/18 06:23:04;;;;;;;0.20;0.20;;;;;;;25.17;53.38;100005.50;4845356;29;20061;-83
2023/08/18 06:25:32;;;;;;;0.20;0.20;;;;;;;25.27;52.58;100021.78;4843791;29;20570;-82
2023/08/18 06:27:59;;;;;;;0.20;0.20;;;;;;;25.43;52.05;100016.63;4847425;29;20062;-83
2023/08/18 06:30:27;;;;;;;0.20;0.20;;;;;;;25.54;52.46;100024.63;4843626;29;20118;-84
2023/08/18 06:32:54;;;;;;;0.20;0.20;;;;;;;25.47;52.24;100023.16;4843392;29;20084;-83
2023/08/18 06:35:22;;;;;;;0.20;0.20;;;;;;;25.46;52.18;100023.47;4826470;29;20518;-84
2023/08/18 06:37:50;;;;;;;0.20;0.20;;;;;;;25.46;52.32;100020.72;4841711;29;20058;-83
2023/08/18 06:40:17;;;;;;;0.20;0.20;;;;;;;25.42;52.73;100012.25;4826542;29;20257;-83
2023/08/18 06:42:45;;;;;;;0.20;0.20;;;;;;;25.49;51.97;100020.88;4842975;29;20594;-83
2023/08/18 06:45:15;;;;;;;0.20;0.20;;;;;;;25.49;52.30;100022.81;4842734;29;20061;-82
2023/08/18 06:47:43;;;;;;;0.20;0.20;;;;;;;25.60;52.46;100018.66;4843576;29;20054;-82
2023/08/18 06:50:10;;;;;;;0.20;0.20;;;;;;;25.64;52.18;100019.63;4841530;29;20064;-82
2023/08/18 06:52:37;;;;;;;0.20;0.20;;;;;;;25.87;51.55;100016.78;4843662;29;20568;-83
2023/08/18 06:55:13;;;;;;;0.20;0.20;;;;;;;26.07;50.79;100015.34;4842457;29;20411;-83
2023/08/18 06:57:45;;;;;;;0.20;0.20;;;;;;;26.27;50.40;100008.38;4842680;29;20054;-82
2023/08/18 07:00:13;;;;;;;0.20;0.20;;;;;;;26.40;50.03;100007.41;4826208;29;20057;-82
2023/08/18 07:02:40;;;;;;;0.20;0.20;;;;;;;26.62;49.05;100005.63;4841717;29;20120;-81
2023/08/18 07:05:12;;;;;;;0.20;0.20;;;;;;;26.72;49.42;100008.06;4840987;29;20050;-82
2023/08/18 07:07:42;;;;;;;0.20;0.20;;;;;;;26.71;48.64;100003.66;4841723;29;20061;-83
2023/08/18 07:10:09;;;;;;;0.20;0.20;;;;;;;26.73;48.88;100010.47;4841766;29;20514;-82
2023/08/18 07:12:36;;;;;;;0.20;0.20;;;;;;;26.70;48.39;100000.06;4810854;29;20050;-84
2023/08/18 07:15:04;;;;;;;0.20;0.20;;;;;;;26.87;48.76;100004.78;4842171;29;20057;-83
2023/08/18 07:17:32;;;;;;;0.20;0.20;;;;;;;26.99;46.82;100007.69;4842570;29;20149;-83
2023/08/18 07:20:04;;;;;;;0.20;0.20;;;;;;;26.92;45.24;100010.13;4842191;29;20140;-82
2023/08/18 07:22:37;;;;;;;0.20;0.20;;;;;;;26.94;45.93;100016.16;4842422;29;20058;-83
2023/08/18 07:25:10;;;;;;;0.20;0.20;;;;;;;26.96;45.27;100011.06;4796988;29;20087;-82
2023/08/18 07:27:39;;;;;;;0.20;0.20;;;;;;;26.99;45.86;100018.75;4811391;29;20061;-81
2023/08/18 07:30:09;;;;;;;0.20;0.20;;;;;;;27.18;45.39;100018.38;4841031;29;20061;-81
2023/08/18 07:32:39;;;;;;;0.20;0.20;;;;;;;27.40;45.72;100020.09;4841961;29;20064;-82
2023/08/18 07:35:08;;;;;;;0.20;0.20;;;;;;;27.56;45.53;100019.53;4842384;29;20427;-82
2023/08/18 07:37:38;;;;;;;0.20;0.20;;;;;;;27.68;45.61;100019.66;4841042;29;20054;-83
2023/08/18 07:40:10;;;;;;;0.10;0.10;;;;;;;27.63;45.66;100025.38;4827200;29;20076;-83
2023/08/18 07:42:40;;;;;;;0.20;0.20;;;;;;;27.64;45.99;100021.44;4825851;29;20073;-82
2023/08/18 07:45:08;;;;;;;0.20;0.20;;;;;;;27.71;45.84;100032.03;4840408;29;20049;-82
2023/08/18 07:47:37;;;;;;;0.20;0.20;;;;;;;27.51;46.16;100017.75;4841517;29;20335;-83
2023/08/18 07:50:07;;;;;;;0.20;0.20;;;;;;;27.58;45.75;100031.91;4826135;29;20112;-81
2023/08/18 07:52:35;;;;;;;0.20;0.20;;;;;;;27.61;45.53;100019.34;4840603;29;20053;-83
2023/08/18 07:55:07;;;;;;;0.20;0.20;;;;;;;27.52;45.84;100022.16;4841334;29;20060;-83
2023/08/18 07:57:36;;;;;;;0.20;0.20;;;;;;;27.70;45.69;100013.75;4841558;29;20061;-82
2023/08/18 08:00:21;;;;;;;0.20;0.20;;;;;;;27.94;45.31;100013.97;4841552;29;20054;-83
2023/08/18 08:02:49;;;;;;;0.20;0.20;;;;;;;28.20;44.65;100015.72;4841850;29;20146;-83
2023/08/18 08:05:19;;;;;;;0.20;0.20;;;;;;;28.43;43.93;100011.44;4839852;29;20138;-82
2023/08/18 08:07:47;;;;;;;0.20;0.20;;;;;;;28.55;43.88;100007.94;4839974;29;20522;-82
2023/08/18 08:10:15;;;;;;;0.20;0.20;;;;;;;28.69;43.49;100000.16;4824472;29;20054;-82
2023/08/18 08:12:45;;;;;;;0.20;0.20;;;;;;;28.85;44.46;100002.28;4840021;29;20054;-80
2023/08/18 08:15:13;;;;;;;0.20;0.20;;;;;;;29.22;42.61;100008.75;4839925;29;20078;-81
2023/08/18 08:17:41;;;;;;;0.20;0.20;;;;;;;29.26;42.67;100000.53;4840824;29;20114;-82
2023/08/18 08:20:17;;;;;;;0.20;0.20;;;;;;;29.51;42.24;100006.91;4839367;29;20073;-82
2023/08/18 08:22:47;;;;;;;0.20;0.20;;;;;;;29.60;42.37;100010.41;4825193;29;20054;-82
2023/08/18 08:25:17;;;;;;;0.20;0.20;;;;;;;29.99;41.45;100013.63;4841770;29;20074;-81
2023/08/18 08:27:45;;;;;;;0.20;0.20;;;;;;;30.22;40.65;100009.16;4844573;29;20058;-82
2023/08/18 08:30:13;;;;;;;0.20;0.20;;;;;;;30.51;39.62;100023.13;4829196;29;20558;-83
2023/08/18 08:33:00;;;;;;;0.20;0.20;;;;;;;31.02;38.83;100018.59;4841038;29;20060;-82
2023/08/18 08:35:28;;;;;;;0.20;0.20;;;;;;;30.96;38.91;100008.06;4841377;29;20085;-82
2023/08/18 08:37:56;;;;;;;0.20;0.20;;;;;;;31.08;37.87;100013.56;4842093;29;20054;-82
2023/08/18 08:40:24;;;;;;;0.30;0.30;;;;;;;31.28;36.78;100009.72;4845152;29;20054;-83
2023/08/18 08:42:56;;;;;;;0.20;0.20;;;;;;;31.68;36.19;100019.09;4839914;29;20062;-83
2023/08/18 08:45:29;;;;;;;0.20;0.20;;;;;;;31.63;35.79;99997.03;4841763;29;20417;-83
2023/08/18 08:47:58;;;;;;;0.20;0.20;;;;;;;31.21;36.54;100008.72;4825334;29;20072;-81
2023/08/18 08:50:28;;;;;;;0.20;0.20;;;;;;;30.72;37.25;100009.81;4825774;29;20526;-83
2023/08/18 08:53:00;;;;;;;0.20;0.20;;;;;;;30.39;37.85;100019.22;4825098;29;20046;-82
2023/08/18 08:55:31;;;;;;;0.20;0.20;;;;;;;30.80;37.71;100022.75;4840522;29;20139;-82
2023/08/18 08:58:00;;;;;;;0.20;0.20;;;;;;;30.96;37.88;100014.44;4839930;29;20106;-81
2023/08/18 09:00:27;;;;;;;0.20;0.20;;;;;;;31.38;37.50;100008.41;4839911;29;20065;-83
2023/08/18 09:03:00;;;;;;;0.20;0.20;;;;;;;32.17;36.61;100016.63;4824254;29;20120;-83
2023/08/18 09:05:32;;;;;;;0.20;0.20;;;;;;;32.01;36.78;100021.47;4824626;29;20510;-83
2023/08/18 09:08:00;;;;;;;0.20;0.20;;;;;;;31.94;36.70;100024.91;4840929;29;20069;-83
2023/08/18 09:10:28;;;;;;;0.10;0.10;;;;;;;31.67;37.15;100031.41;4840812;29;20053;-82
2023/08/18 09:12:55;;;;;;;0.10;0.10;;;;;;;31.42;37.95;100042.75;4841277;29;20058;-82
2023/08/18 09:15:23;;;;;;;0.10;0.10;;;;;;;31.26;38.17;100050.28;4841202;29;20418;-82
2023/08/18 09:17:51;;;;;;;0.10;0.10;;;;;;;31.03;38.55;100052.84;4809359;29;20438;-84
2023/08/18 09:20:19;;;;;;;0.10;0.10;;;;;;;30.99;38.45;100058.34;4826935;29;20058;-83
2023/08/18 09:22:46;;;;;;;0.10;0.10;;;;;;;30.94;38.90;100060.56;4846224;29;20514;-83
2023/08/18 09:25:14;;;;;;;0.10;0.10;;;;;;;30.83;39.24;100060.28;4823694;29;20054;-82
2023/08/18 09:27:42;;;;;;;0.10;0.10;;;;;;;30.56;38.91;100061.84;4823526;29;20581;-82
2023/08/18 09:30:10;;;;;;;0.20;0.20;;;;;;;30.23;39.89;100060.06;4838750;29;20517;-82
2023/08/18 09:32:38;;;;;;;0.10;0.10;;;;;;;30.16;40.43;100071.81;4842747;29;20056;-82
2023/08/18 09:35:10;;;;;;;0.10;0.10;;;;;;;30.19;40.67;100065.53;4842507;29;20054;-82
2023/08/18 09:37:39;;;;;;;0.10;0.10;;;;;;;30.26;39.86;100061.34;4827410;29;20141;-83
2023/08/18 09:40:07;;;;;;;0.17;0.17;;;;;;;30.22;39.46;100069.59;4827381;29;20124;-83
2023/08/18 09:42:34;;;;;;;0.20;0.20;;;;;;;30.14;40.07;100063.00;4842389;29;20050;-82
2023/08/18 09:45:02;;;;;;;0.10;0.10;;;;;;;30.39;39.91;100068.53;4842465;29;20472;-82
2023/08/18 09:47:32;;;;;;;0.20;0.20;;;;;;;30.72;39.57;100062.75;4842790;29;20053;-83
2023/08/18 09:50:01;;;;;;;0.20;0.20;;;;;;;30.98;38.65;100067.88;4842760;29;20056;-82
2023/08/18 09:52:33;;;;;;;0.10;0.10;;;;;;;30.75;39.17;100064.81;4842147;29;20058;-81
2023/08/18 09:55:14;;;;;;;0.10;0.10;;;;;;;30.53;39.52;100074.50;4827039;29;20062;-82
2023/08/18 09:57:52;;;;;;;0.10;0.10;;;;;;;30.08;39.41;100077.47;4842409;29;20061;-82
2023/08/18 10:00:20;;;;;;;0.10;0.10;;;;;;;29.77;40.67;100073.34;4826742;29;20119;-82
2023/08/18 10:02:49;;;;;;;0.10;0.10;;;;;;;29.72;40.61;100076.34;4842064;29;20122;-83
2023/08/18 10:05:16;;;;;;;0.10;0.10;;;;;;;29.68;40.97;100072.66;4843212;29;20145;-83
2023/08/18 10:07:44;;;;;;;0.10;0.10;;;;;;;29.74;41.38;100077.63;4842113;29;20502;-82
2023/08/18 10:10:13;;;;;;;0.17;0.17;;;;;;;29.66;41.65;100077.75;4826844;29;20069;-82
2023/08/18 10:12:41;;;;;;;0.10;0.10;;;;;;;29.65;41.63;100078.84;4843456;29;20058;-82
2023/08/18 10:15:09;;;;;;;0.20;0.20;;;;;;;29.59;42.46;100058.81;4826746;29;20058;-82
2023/08/18 10:17:37;;;;;;;0.20;0.20;;;;;;;29.71;44.22;100072.75;4826916;29;20058;-84
2023/08/18 10:20:10;;;;;;;0.20;0.20;;;;;;;29.74;44.49;100074.84;4843150;29;20076;-82
2023/08/18 10:22:38;;;;;;;0.10;0.10;;;;;;;29.89;45.06;100072.53;4843406;29;20514;-82
2023/08/18 10:25:06;;;;;;;0.10;0.10;;;;;;;29.81;45.42;100061.16;4842937;29;20510;-82
2023/08/18 10:27:38;;;;;;;0.10;0.10;;;;;;;29.72;44.79;100054.91;4842924;29;20061;-82
2023/08/18 10:30:08;;;;;;;0.10;0.10;;;;;;;29.69;45.73;100063.94;4843095;29;20056;-82
2023/08/18 10:32:36;;;;;;;0.10;0.10;;;;;;;29.58;45.75;100048.88;4843206;29;20058;-81
2023/08/18 10:35:23;;;;;;;0.10;0.10;;;;;;;29.29;44.65;100061.78;4848491;29;20136;-81
2023/08/18 10:37:55;;;;;;;0.10;0.10;;;;;;;29.02;45.66;100056.81;4843094;29;20066;-82
2023/08/18 10:40:29;;;;;;;0.10;0.10;;;;;;;28.81;46.73;100035.47;4841686;29;20061;-83
2023/08/18 10:42:59;;;;;;;0.10;0.10;;;;;;;28.81;45.02;100041.03;4842612;29;20550;-82
2023/08/18 10:45:28;;;;;;;0.10;0.10;;;;;;;28.66;44.96;100030.56;4841910;29;20057;-83
2023/08/18 10:48:00;;;;;;;0.10;0.10;;;;;;;28.66;45.97;100039.72;4842775;29;20510;-84
2023/08/18 10:50:29;;;;;;;0.10;0.10;;;;;;;28.55;46.89;100037.69;4842763;29;20057;-81
2023/08/18 10:53:00;;;;;;;0.10;0.10;;;;;;;28.60;48.12;100046.63;4842492;29;20050;-83
2023/08/18 10:55:28;;;;;;;0.10;0.10;;;;;;;28.57;47.42;100046.50;4826603;29;20057;-81
2023/08/18 10:57:55;;;;;;;0.10;0.10;;;;;;;28.40;48.91;100053.78;4842683;29;20050;-84
2023/08/18 11:00:23;;;;;;;0.10;0.10;;;;;;;28.16;49.77;100054.47;4845286;29;20152;-82
2023/08/18 11:02:51;;;;;;;0.10;0.10;;;;;;;28.08;50.43;100053.38;4831061;29;20520;-83
2023/08/18 11:05:21;;;;;;;0.10;0.10;;;;;;;28.01;51.02;100044.75;4842464;29;20065;-83
2023/08/18 11:07:53;;;;;;;0.20;0.20;;;;;;;28.09;52.22;100052.22;4841026;29;20054;-83
2023/08/18 11:10:24;;;;;;;0.10;0.10;;;;;;;28.01;52.60;100055.84;4841351;29;20108;-82
2023/08/18 11:12:54;;;;;;;0.10;0.10;;;;;;;28.05;53.12;100042.13;4840835;29;20149;-82
2023/08/18 11:15:23;;;;;;;0.10;0.10;;;;;;;28.10;53.30;100028.03;4840686;29;20476;-83
2023/08/18 11:17:50;;;;;;;0.10;0.10;;;;;;;28.17;55.02;100035.84;4842340;29;20148;-82
2023/08/18 11:20:19;;;;;;;0.20;0.20;;;;;;;28.06;55.25;100022.38;4825424;29;20534;-81
2023/08/18 11:22:53;;;;;;;0.10;0.10;;;;;;;27.94;55.61;100018.69;4841962;29;20062;-82
2023/08/18 11:25:22;;;;;;;0.10;0.10;;;;;;;27.68;56.38;99997.47;4840442;29;20434;-81
2023/08/18 11:27:52;;;;;;;0.10;0.10;;;;;;;27.52;57.22;100001.94;4840815;29;20545;-81
2023/08/18 11:30:21;;;;;;;0.10;0.10;;;;;;;27.40;58.11;99997.13;4840462;29;20057;-82
2023/08/18 11:32:53;;;;;;;0.10;0.10;;;;;;;27.12;58.73;99983.69;4839739;29;20546;-82
2023/08/18 11:35:21;;;;;;;0.10;0.10;;;;;;;27.03;60.34;99986.47;4840651;29;20099;-83
2023/08/18 11:37:51;;;;;;;0.10;0.10;;;;;;;26.82;61.31;99968.13;4841667;29;20066;-81